sensor_id;sensor_type;location;lat;lon;timestamp;temperature;humidity
39777;DHT22;25453;48.162;14.510;2023-05-07T00:00:43;17.40;71.20
39777;DHT22;25453;48.162;14.510;2023-05-07T00:03:10;17.40;71.10
39777;DHT22;25453;48.162;14.510;2023-05-07T00:05:38;17.30;71.10
39777;DHT22;25453;48.162;14.510;2023-05-07T00:08:05;17.30;71.20
39777;DHT22;25453;48.162;14.510;2023-05-07T00:10:33;17.20;71.20
39777;DHT22;25453;48.162;14.510;2023-05-07T00:13:00;17.10;71.20
39777;DHT22;25453;48.162;14.510;2023-05-07T00:15:27;17.10;71.40
39777;DHT22;25453;48.162;14.510;2023-05-07T00:17:55;17.10;71.30
39777;DHT22;25453;48.162;14.510;2023-05-07T00:20:22;17.10;71.30
39777;DHT22;25453;48.162;14.510;2023-05-07T00:22:49;17.10;71.60
39777;DHT22;25453;48.162;14.510;2023-05-07T00:25:17;17.10;71.70
39777;DHT22;25453;48.162;14.510;2023-05-07T00:27:46;17.10;71.60
39777;DHT22;25453;48.162;14.510;2023-05-07T00:30:13;17.20;71.50
39777;DHT22;25453;48.162;14.510;2023-05-07T00:32:41;17.20;71.20
39777;DHT22;25453;48.162;14.510;2023-05-07T00:35:08;17.20;71.00
39777;DHT22;25453;48.162;14.510;2023-05-07T00:37:36;17.20;71.10
39777;DHT22;25453;48.162;14.510;2023-05-07T00:40:03;17.20;71.20
39777;DHT22;25453;48.162;14.510;2023-05-07T00:42:34;17.30;71.00
39777;DHT22;25453;48.162;14.510;2023-05-07T00:45:02;17.30;71.00
39777;DHT22;25453;48.162;14.510;2023-05-07T00:47:32;17.30;71.00
39777;DHT22;25453;48.162;14.510;2023-05-07T00:50:00;17.30;70.90
39777;DHT22;25453;48.162;14.510;2023-05-07T00:52:28;17.30;70.80
39777;DHT22;25453;48.162;14.510;2023-05-07T00:54:55;17.30;70.70
39777;DHT22;25453;48.162;14.510;2023-05-07T00:57:24;17.30;70.60
39777;DHT22;25453;48.162;14.510;2023-05-07T00:59:52;17.30;70.50
39777;DHT22;25453;48.162;14.510;2023-05-07T01:02:19;17.30;70.10
39777;DHT22;25453;48.162;14.510;2023-05-07T01:04:47;17.20;69.80
39777;DHT22;25453;48.162;14.510;2023-05-07T01:07:14;17.10;69.90
39777;DHT22;25453;48.162;14.510;2023-05-07T01:09:42;17.00;69.90
39777;DHT22;25453;48.162;14.510;2023-05-07T01:12:09;17.00;69.90
39777;DHT22;25453;48.162;14.510;2023-05-07T01:14:37;16.90;69.90
39777;DHT22;25453;48.162;14.510;2023-05-07T01:17:04;16.90;70.20
39777;DHT22;25453;48.162;14.510;2023-05-07T01:19:31;16.90;70.40
39777;DHT22;25453;48.162;14.510;2023-05-07T01:22:03;16.90;70.20
39777;DHT22;25453;48.162;14.510;2023-05-07T01:24:31;16.90;70.20
39777;DHT22;25453;48.162;14.510;2023-05-07T01:26:58;16.90;70.30
39777;DHT22;25453;48.162;14.510;2023-05-07T01:29:26;16.90;70.30
39777;DHT22;25453;48.162;14.510;2023-05-07T01:31:53;17.00;70.20
39777;DHT22;25453;48.162;14.510;2023-05-07T01:34:21;17.00;70.00
39777;DHT22;25453;48.162;14.510;2023-05-07T01:36:49;17.00;69.80
39777;DHT22;25453;48.162;14.510;2023-05-07T01:39:16;16.90;69.60
39777;DHT22;25453;48.162;14.510;2023-05-07T01:41:49;16.90;69.60
39777;DHT22;25453;48.162;14.510;2023-05-07T01:44:17;16.90;69.50
39777;DHT22;25453;48.162;14.510;2023-05-07T01:46:45;16.80;69.70
39777;DHT22;25453;48.162;14.510;2023-05-07T01:49:14;16.90;69.70
39777;DHT22;25453;48.162;14.510;2023-05-07T01:51:44;16.90;69.40
39777;DHT22;25453;48.162;14.510;2023-05-07T01:54:11;16.80;69.00
39777;DHT22;25453;48.162;14.510;2023-05-07T01:56:39;16.70;68.90
39777;DHT22;25453;48.162;14.510;2023-05-07T01:59:07;16.70;69.10
39777;DHT22;25453;48.162;14.510;2023-05-07T02:01:34;16.70;69.20
39777;DHT22;25453;48.162;14.510;2023-05-07T02:04:01;16.60;68.90
39777;DHT22;25453;48.162;14.510;2023-05-07T02:06:29;16.60;69.00
39777;DHT22;25453;48.162;14.510;2023-05-07T02:08:57;16.60;68.90
39777;DHT22;25453;48.162;14.510;2023-05-07T02:11:25;16.60;68.90
39777;DHT22;25453;48.162;14.510;2023-05-07T02:13:52;16.60;68.70
39777;DHT22;25453;48.162;14.510;2023-05-07T02:16:19;16.50;68.60
39777;DHT22;25453;48.162;14.510;2023-05-07T02:18:48;16.50;68.70
39777;DHT22;25453;48.162;14.510;2023-05-07T02:21:16;16.40;68.70
39777;DHT22;25453;48.162;14.510;2023-05-07T02:23:45;16.30;68.90
39777;DHT22;25453;48.162;14.510;2023-05-07T02:26:15;16.30;69.10
39777;DHT22;25453;48.162;14.510;2023-05-07T02:28:42;16.30;69.10
39777;DHT22;25453;48.162;14.510;2023-05-07T02:31:10;16.30;68.90
39777;DHT22;25453;48.162;14.510;2023-05-07T02:33:37;16.20;69.10
39777;DHT22;25453;48.162;14.510;2023-05-07T02:36:05;16.20;69.10
39777;DHT22;25453;48.162;14.510;2023-05-07T02:38:33;16.20;69.10
39777;DHT22;25453;48.162;14.510;2023-05-07T02:41:00;16.20;69.40
39777;DHT22;25453;48.162;14.510;2023-05-07T02:43:27;16.30;69.50
39777;DHT22;25453;48.162;14.510;2023-05-07T02:46:05;16.30;69.10
39777;DHT22;25453;48.162;14.510;2023-05-07T02:48:33;16.20;68.90
39777;DHT22;25453;48.162;14.510;2023-05-07T02:51:00;16.20;68.90
39777;DHT22;25453;48.162;14.510;2023-05-07T02:53:28;16.10;69.10
39777;DHT22;25453;48.162;14.510;2023-05-07T02:55:56;16.10;69.20
39777;DHT22;25453;48.162;14.510;2023-05-07T02:58:24;16.00;69.10
39777;DHT22;25453;48.162;14.510;2023-05-07T03:00:52;16.00;69.10
39777;DHT22;25453;48.162;14.510;2023-05-07T03:03:20;16.00;69.10
39777;DHT22;25453;48.162;14.510;2023-05-07T03:05:49;15.90;69.40
39777;DHT22;25453;48.162;14.510;2023-05-07T03:08:16;16.00;69.70
39777;DHT22;25453;48.162;14.510;2023-05-07T03:10:43;16.10;69.80
39777;DHT22;25453;48.162;14.510;2023-05-07T03:13:13;16.10;69.70
39777;DHT22;25453;48.162;14.510;2023-05-07T03:15:40;16.20;69.60
39777;DHT22;25453;48.162;14.510;2023-05-07T03:18:07;16.20;69.50
39777;DHT22;25453;48.162;14.510;2023-05-07T03:20:34;16.20;69.10
39777;DHT22;25453;48.162;14.510;2023-05-07T03:23:03;16.20;69.00
39777;DHT22;25453;48.162;14.510;2023-05-07T03:25:31;16.20;69.20
39777;DHT22;25453;48.162;14.510;2023-05-07T03:27:58;16.10;68.90
39777;DHT22;25453;48.162;14.510;2023-05-07T03:30:25;16.10;68.70
39777;DHT22;25453;48.162;14.510;2023-05-07T03:32:52;16.00;68.80
39777;DHT22;25453;48.162;14.510;2023-05-07T03:35:19;16.00;69.10
39777;DHT22;25453;48.162;14.510;2023-05-07T03:37:47;15.90;69.00
39777;DHT22;25453;48.162;14.510;2023-05-07T03:40:14;15.90;69.00
39777;DHT22;25453;48.162;14.510;2023-05-07T03:42:42;15.80;69.00
39777;DHT22;25453;48.162;14.510;2023-05-07T03:45:09;15.80;69.30
39777;DHT22;25453;48.162;14.510;2023-05-07T03:47:36;15.80;69.20
39777;DHT22;25453;48.162;14.510;2023-05-07T03:50:03;15.80;69.10
39777;DHT22;25453;48.162;14.510;2023-05-07T03:52:31;15.70;69.10
39777;DHT22;25453;48.162;14.510;2023-05-07T03:54:58;15.70;69.40
39777;DHT22;25453;48.162;14.510;2023-05-07T03:57:27;15.70;69.40
39777;DHT22;25453;48.162;14.510;2023-05-07T03:59:56;15.70;69.40
39777;DHT22;25453;48.162;14.510;2023-05-07T04:02:23;15.70;69.50
39777;DHT22;25453;48.162;14.510;2023-05-07T04:04:50;15.70;69.80
39777;DHT22;25453;48.162;14.510;2023-05-07T04:07:17;15.70;69.80
39777;DHT22;25453;48.162;14.510;2023-05-07T04:09:45;15.80;69.90
39777;DHT22;25453;48.162;14.510;2023-05-07T04:12:12;15.80;70.00
39777;DHT22;25453;48.162;14.510;2023-05-07T04:14:39;15.90;69.90
39777;DHT22;25453;48.162;14.510;2023-05-07T04:17:07;15.90;69.90
39777;DHT22;25453;48.162;14.510;2023-05-07T04:19:36;15.90;69.80
39777;DHT22;25453;48.162;14.510;2023-05-07T04:22:03;15.90;69.70
39777;DHT22;25453;48.162;14.510;2023-05-07T04:24:31;16.00;69.70
39777;DHT22;25453;48.162;14.510;2023-05-07T04:26:59;16.00;69.70
39777;DHT22;25453;48.162;14.510;2023-05-07T04:29:26;16.00;69.70
39777;DHT22;25453;48.162;14.510;2023-05-07T04:31:54;16.00;69.70
39777;DHT22;25453;48.162;14.510;2023-05-07T04:34:24;16.00;69.80
39777;DHT22;25453;48.162;14.510;2023-05-07T04:36:51;16.00;69.80
39777;DHT22;25453;48.162;14.510;2023-05-07T04:39:18;16.10;69.70
39777;DHT22;25453;48.162;14.510;2023-05-07T04:41:45;16.10;69.80
39777;DHT22;25453;48.162;14.510;2023-05-07T04:44:13;16.10;69.80
39777;DHT22;25453;48.162;14.510;2023-05-07T04:46:40;16.20;69.80
39777;DHT22;25453;48.162;14.510;2023-05-07T04:49:07;16.20;69.80
39777;DHT22;25453;48.162;14.510;2023-05-07T04:51:35;16.20;69.80
39777;DHT22;25453;48.162;14.510;2023-05-07T04:54:02;16.20;69.90
39777;DHT22;25453;48.162;14.510;2023-05-07T04:56:29;16.20;69.80
39777;DHT22;25453;48.162;14.510;2023-05-07T04:58:57;16.30;69.80
39777;DHT22;25453;48.162;14.510;2023-05-07T05:01:24;16.30;69.80
39777;DHT22;25453;48.162;14.510;2023-05-07T05:03:51;16.30;69.80
39777;DHT22;25453;48.162;14.510;2023-05-07T05:06:18;16.30;69.90
39777;DHT22;25453;48.162;14.510;2023-05-07T05:08:45;16.30;70.00
39777;DHT22;25453;48.162;14.510;2023-05-07T05:11:12;16.40;69.90
39777;DHT22;25453;48.162;14.510;2023-05-07T05:13:39;16.40;69.90
39777;DHT22;25453;48.162;14.510;2023-05-07T05:16:07;16.40;69.90
39777;DHT22;25453;48.162;14.510;2023-05-07T05:18:34;16.40;69.90
39777;DHT22;25453;48.162;14.510;2023-05-07T05:21:01;16.40;70.00
39777;DHT22;25453;48.162;14.510;2023-05-07T05:23:29;16.50;70.00
39777;DHT22;25453;48.162;14.510;2023-05-07T05:25:56;16.50;70.10
39777;DHT22;25453;48.162;14.510;2023-05-07T05:28:24;16.60;70.20
39777;DHT22;25453;48.162;14.510;2023-05-07T05:30:51;16.70;70.10
39777;DHT22;25453;48.162;14.510;2023-05-07T05:33:18;16.70;70.10
39777;DHT22;25453;48.162;14.510;2023-05-07T05:35:46;16.80;70.10
39777;DHT22;25453;48.162;14.510;2023-05-07T05:38:13;16.80;70.10
39777;DHT22;25453;48.162;14.510;2023-05-07T05:40:40;16.80;70.00
39777;DHT22;25453;48.162;14.510;2023-05-07T05:43:08;16.90;70.00
39777;DHT22;25453;48.162;14.510;2023-05-07T05:45:35;16.90;70.10
39777;DHT22;25453;48.162;14.510;2023-05-07T05:48:03;17.00;70.00
39777;DHT22;25453;48.162;14.510;2023-05-07T05:50:30;17.00;69.90
39777;DHT22;25453;48.162;14.510;2023-05-07T05:52:57;17.00;69.90
39777;DHT22;25453;48.162;14.510;2023-05-07T05:55:26;17.00;69.90
39777;DHT22;25453;48.162;14.510;2023-05-07T05:57:53;17.10;69.90
39777;DHT22;25453;48.162;14.510;2023-05-07T06:00:20;17.10;70.00
39777;DHT22;25453;48.162;14.510;2023-05-07T06:02:50;17.10;70.00
39777;DHT22;25453;48.162;14.510;2023-05-07T06:05:18;17.20;69.80
39777;DHT22;25453;48.162;14.510;2023-05-07T06:07:45;17.20;69.90
39777;DHT22;25453;48.162;14.510;2023-05-07T06:10:13;17.20;69.80
39777;DHT22;25453;48.162;14.510;2023-05-07T06:12:40;17.20;69.80
39777;DHT22;25453;48.162;14.510;2023-05-07T06:15:08;17.30;69.80
39777;DHT22;25453;48.162;14.510;2023-05-07T06:17:35;17.30;69.80
39777;DHT22;25453;48.162;14.510;2023-05-07T06:20:02;17.30;69.70
39777;DHT22;25453;48.162;14.510;2023-05-07T06:22:29;17.30;69.80
39777;DHT22;25453;48.162;14.510;2023-05-07T06:24:56;17.40;69.80
39777;DHT22;25453;48.162;14.510;2023-05-07T06:27:23;17.40;69.80
39777;DHT22;25453;48.162;14.510;2023-05-07T06:29:51;17.40;69.50
39777;DHT22;25453;48.162;14.510;2023-05-07T06:32:21;17.50;69.40
39777;DHT22;25453;48.162;14.510;2023-05-07T06:34:48;17.50;69.30
39777;DHT22;25453;48.162;14.510;2023-05-07T06:37:16;17.50;69.00
39777;DHT22;25453;48.162;14.510;2023-05-07T06:39:43;17.50;68.60
39777;DHT22;25453;48.162;14.510;2023-05-07T06:42:10;17.50;66.70
39777;DHT22;25453;48.162;14.510;2023-05-07T06:44:38;17.50;66.00
39777;DHT22;25453;48.162;14.510;2023-05-07T06:47:05;17.50;66.00
39777;DHT22;25453;48.162;14.510;2023-05-07T06:49:33;17.50;65.50
39777;DHT22;25453;48.162;14.510;2023-05-07T06:52:00;17.40;65.70
39777;DHT22;25453;48.162;14.510;2023-05-07T06:54:28;17.40;66.20
39777;DHT22;25453;48.162;14.510;2023-05-07T06:56:56;17.50;65.50
39777;DHT22;25453;48.162;14.510;2023-05-07T06:59:23;17.50;65.70
39777;DHT22;25453;48.162;14.510;2023-05-07T07:01:51;17.60;65.60
39777;DHT22;25453;48.162;14.510;2023-05-07T07:04:18;17.60;65.10
39777;DHT22;25453;48.162;14.510;2023-05-07T07:06:45;17.60;65.30
39777;DHT22;25453;48.162;14.510;2023-05-07T07:09:13;17.70;65.20
39777;DHT22;25453;48.162;14.510;2023-05-07T07:11:41;17.70;65.20
39777;DHT22;25453;48.162;14.510;2023-05-07T07:14:08;17.80;65.30
39777;DHT22;25453;48.162;14.510;2023-05-07T07:16:35;17.80;64.50
39777;DHT22;25453;48.162;14.510;2023-05-07T07:19:02;17.90;64.60
39777;DHT22;25453;48.162;14.510;2023-05-07T07:21:30;17.90;64.60
39777;DHT22;25453;48.162;14.510;2023-05-07T07:23:57;17.90;64.60
39777;DHT22;25453;48.162;14.510;2023-05-07T07:26:24;18.00;64.30
39777;DHT22;25453;48.162;14.510;2023-05-07T07:28:51;18.00;63.80
39777;DHT22;25453;48.162;14.510;2023-05-07T07:31:19;18.00;63.70
39777;DHT22;25453;48.162;14.510;2023-05-07T07:33:48;18.10;62.60
39777;DHT22;25453;48.162;14.510;2023-05-07T07:36:18;18.10;62.70
39777;DHT22;25453;48.162;14.510;2023-05-07T07:38:47;18.20;62.30
39777;DHT22;25453;48.162;14.510;2023-05-07T07:41:15;18.20;61.80
39777;DHT22;25453;48.162;14.510;2023-05-07T07:43:42;18.20;62.10
39777;DHT22;25453;48.162;14.510;2023-05-07T07:46:09;18.30;61.90
39777;DHT22;25453;48.162;14.510;2023-05-07T07:48:39;18.30;61.80
39777;DHT22;25453;48.162;14.510;2023-05-07T07:51:07;18.30;62.20
39777;DHT22;25453;48.162;14.510;2023-05-07T07:53:34;18.40;62.40
39777;DHT22;25453;48.162;14.510;2023-05-07T07:56:04;18.40;62.10
39777;DHT22;25453;48.162;14.510;2023-05-07T07:58:32;18.50;61.90
39777;DHT22;25453;48.162;14.510;2023-05-07T08:01:00;18.60;62.00
39777;DHT22;25453;48.162;14.510;2023-05-07T08:03:27;18.60;62.30
39777;DHT22;25453;48.162;14.510;2023-05-07T08:05:55;18.70;62.30
39777;DHT22;25453;48.162;14.510;2023-05-07T08:08:31;18.80;62.10
39777;DHT22;25453;48.162;14.510;2023-05-07T08:10:59;18.90;61.90
39777;DHT22;25453;48.162;14.510;2023-05-07T08:13:26;18.90;62.10
39777;DHT22;25453;48.162;14.510;2023-05-07T08:15:54;19.00;61.80
39777;DHT22;25453;48.162;14.510;2023-05-07T08:18:21;19.10;61.50
39777;DHT22;25453;48.162;14.510;2023-05-07T08:20:53;19.10;61.60
39777;DHT22;25453;48.162;14.510;2023-05-07T08:23:21;19.20;61.10
39777;DHT22;25453;48.162;14.510;2023-05-07T08:25:49;19.30;60.20
39777;DHT22;25453;48.162;14.510;2023-05-07T08:28:19;19.30;60.00
39777;DHT22;25453;48.162;14.510;2023-05-07T08:30:48;19.30;60.00
39777;DHT22;25453;48.162;14.510;2023-05-07T08:33:20;19.40;59.90
39777;DHT22;25453;48.162;14.510;2023-05-07T08:35:50;19.40;59.90
39777;DHT22;25453;48.162;14.510;2023-05-07T08:38:22;19.50;60.20
39777;DHT22;25453;48.162;14.510;2023-05-07T08:40:49;19.50;60.30
39777;DHT22;25453;48.162;14.510;2023-05-07T08:43:17;19.60;60.40
39777;DHT22;25453;48.162;14.510;2023-05-07T08:45:45;19.70;60.40
39777;DHT22;25453;48.162;14.510;2023-05-07T08:48:16;19.80;60.40
39777;DHT22;25453;48.162;14.510;2023-05-07T08:50:45;19.90;60.20
39777;DHT22;25453;48.162;14.510;2023-05-07T08:53:16;19.90;60.20
39777;DHT22;25453;48.162;14.510;2023-05-07T08:55:43;20.00;60.10
39777;DHT22;25453;48.162;14.510;2023-05-07T08:58:10;20.10;60.10
39777;DHT22;25453;48.162;14.510;2023-05-07T09:00:38;20.20;58.10
39777;DHT22;25453;48.162;14.510;2023-05-07T09:03:06;20.30;58.70
39777;DHT22;25453;48.162;14.510;2023-05-07T09:05:33;20.40;58.80
39777;DHT22;25453;48.162;14.510;2023-05-07T09:08:04;20.40;58.00
39777;DHT22;25453;48.162;14.510;2023-05-07T09:10:33;20.50;57.90
39777;DHT22;25453;48.162;14.510;2023-05-07T09:13:00;20.60;57.90
39777;DHT22;25453;48.162;14.510;2023-05-07T09:15:36;20.70;58.00
39777;DHT22;25453;48.162;14.510;2023-05-07T09:18:03;20.80;57.80
39777;DHT22;25453;48.162;14.510;2023-05-07T09:20:30;20.80;57.60
39777;DHT22;25453;48.162;14.510;2023-05-07T09:23:03;20.90;57.30
39777;DHT22;25453;48.162;14.510;2023-05-07T09:25:31;21.00;56.90
39777;DHT22;25453;48.162;14.510;2023-05-07T09:27:59;21.10;56.30
39777;DHT22;25453;48.162;14.510;2023-05-07T09:30:31;21.20;56.70
39777;DHT22;25453;48.162;14.510;2023-05-07T09:32:58;21.30;56.60
39777;DHT22;25453;48.162;14.510;2023-05-07T09:35:26;21.50;56.80
39777;DHT22;25453;48.162;14.510;2023-05-07T09:37:57;21.60;55.50
39777;DHT22;25453;48.162;14.510;2023-05-07T09:40:29;21.70;55.80
39777;DHT22;25453;48.162;14.510;2023-05-07T09:43:07;21.80;55.10
39777;DHT22;25453;48.162;14.510;2023-05-07T09:45:35;22.00;54.90
39777;DHT22;25453;48.162;14.510;2023-05-07T09:48:04;22.20;54.60
39777;DHT22;25453;48.162;14.510;2023-05-07T09:50:35;22.40;54.10
39777;DHT22;25453;48.162;14.510;2023-05-07T09:53:03;22.60;54.20
39777;DHT22;25453;48.162;14.510;2023-05-07T09:55:30;22.70;53.50
39777;DHT22;25453;48.162;14.510;2023-05-07T09:57:58;22.90;53.50
39777;DHT22;25453;48.162;14.510;2023-05-07T10:00:26;23.10;52.80
39777;DHT22;25453;48.162;14.510;2023-05-07T10:02:55;23.30;52.70
39777;DHT22;25453;48.162;14.510;2023-05-07T10:05:23;23.50;52.60
39777;DHT22;25453;48.162;14.510;2023-05-07T10:07:55;23.70;52.30
39777;DHT22;25453;48.162;14.510;2023-05-07T10:10:24;23.80;52.10
39777;DHT22;25453;48.162;14.510;2023-05-07T10:12:51;24.00;50.70
39777;DHT22;25453;48.162;14.510;2023-05-07T10:15:19;24.10;49.30
39777;DHT22;25453;48.162;14.510;2023-05-07T10:17:47;24.10;49.10
39777;DHT22;25453;48.162;14.510;2023-05-07T10:20:15;24.20;49.90
39777;DHT22;25453;48.162;14.510;2023-05-07T10:22:47;24.30;49.70
39777;DHT22;25453;48.162;14.510;2023-05-07T10:28:14;24.60;49.80
39777;DHT22;25453;48.162;14.510;2023-05-07T10:33:33;24.90;49.10
39777;DHT22;25453;48.162;14.510;2023-05-07T10:36:01;25.00;48.90
39777;DHT22;25453;48.162;14.510;2023-05-07T10:38:31;25.10;48.80
39777;DHT22;25453;48.162;14.510;2023-05-07T10:40:58;25.30;48.20
39777;DHT22;25453;48.162;14.510;2023-05-07T10:43:25;25.30;48.10
39777;DHT22;25453;48.162;14.510;2023-05-07T10:46:11;25.40;48.20
39777;DHT22;25453;48.162;14.510;2023-05-07T10:51:25;25.50;48.00
39777;DHT22;25453;48.162;14.510;2023-05-07T10:56:38;25.70;47.70
39777;DHT22;25453;48.162;14.510;2023-05-07T11:01:53;25.90;47.20
39777;DHT22;25453;48.162;14.510;2023-05-07T11:04:24;25.90;46.70
39777;DHT22;25453;48.162;14.510;2023-05-07T11:09:54;25.80;45.50
39777;DHT22;25453;48.162;14.510;2023-05-07T11:15:09;25.50;45.90
39777;DHT22;25453;48.162;14.510;2023-05-07T11:17:54;25.50;46.00
39777;DHT22;25453;48.162;14.510;2023-05-07T11:23:08;25.50;46.40
39777;DHT22;25453;48.162;14.510;2023-05-07T11:25:35;25.50;46.60
39777;DHT22;25453;48.162;14.510;2023-05-07T11:28:07;25.60;46.00
39777;DHT22;25453;48.162;14.510;2023-05-07T11:30:37;25.50;45.70
39777;DHT22;25453;48.162;14.510;2023-05-07T11:33:04;25.40;45.90
39777;DHT22;25453;48.162;14.510;2023-05-07T11:35:32;25.40;46.20
39777;DHT22;25453;48.162;14.510;2023-05-07T11:38:02;25.30;46.20
39777;DHT22;25453;48.162;14.510;2023-05-07T11:40:30;25.30;46.50
39777;DHT22;25453;48.162;14.510;2023-05-07T11:42:58;25.30;47.00
39777;DHT22;25453;48.162;14.510;2023-05-07T11:45:28;25.40;47.00
39777;DHT22;25453;48.162;14.510;2023-05-07T11:47:56;25.50;47.10
39777;DHT22;25453;48.162;14.510;2023-05-07T11:50:24;25.50;46.80
39777;DHT22;25453;48.162;14.510;2023-05-07T11:52:52;25.60;47.00
39777;DHT22;25453;48.162;14.510;2023-05-07T11:55:20;25.60;47.10
39777;DHT22;25453;48.162;14.510;2023-05-07T11:57:48;25.70;46.90
39777;DHT22;25453;48.162;14.510;2023-05-07T12:00:16;25.70;46.70
39777;DHT22;25453;48.162;14.510;2023-05-07T12:02:45;25.70;46.20
39777;DHT22;25453;48.162;14.510;2023-05-07T12:05:12;25.70;45.40
39777;DHT22;25453;48.162;14.510;2023-05-07T12:07:42;25.50;46.00
39777;DHT22;25453;48.162;14.510;2023-05-07T12:10:32;25.50;46.40
39777;DHT22;25453;48.162;14.510;2023-05-07T12:13:00;25.50;46.60
39777;DHT22;25453;48.162;14.510;2023-05-07T12:15:27;25.50;46.40
39777;DHT22;25453;48.162;14.510;2023-05-07T12:17:54;25.50;46.60
39777;DHT22;25453;48.162;14.510;2023-05-07T12:20:21;25.50;46.60
39777;DHT22;25453;48.162;14.510;2023-05-07T12:22:49;25.50;46.00
39777;DHT22;25453;48.162;14.510;2023-05-07T12:25:19;25.40;46.20
39777;DHT22;25453;48.162;14.510;2023-05-07T12:27:51;25.30;46.50
39777;DHT22;25453;48.162;14.510;2023-05-07T12:30:18;25.40;46.50
39777;DHT22;25453;48.162;14.510;2023-05-07T12:32:45;25.40;46.60
39777;DHT22;25453;48.162;14.510;2023-05-07T12:35:13;25.40;46.30
39777;DHT22;25453;48.162;14.510;2023-05-07T12:37:40;25.40;45.60
39777;DHT22;25453;48.162;14.510;2023-05-07T12:40:08;25.30;46.00
39777;DHT22;25453;48.162;14.510;2023-05-07T12:42:36;25.20;46.20
39777;DHT22;25453;48.162;14.510;2023-05-07T12:45:13;25.10;45.80
39777;DHT22;25453;48.162;14.510;2023-05-07T12:47:43;25.00;46.40
39777;DHT22;25453;48.162;14.510;2023-05-07T12:50:12;25.00;46.70
39777;DHT22;25453;48.162;14.510;2023-05-07T12:52:43;25.00;47.10
39777;DHT22;25453;48.162;14.510;2023-05-07T12:55:12;25.10;47.00
39777;DHT22;25453;48.162;14.510;2023-05-07T12:57:41;25.10;46.20
39777;DHT22;25453;48.162;14.510;2023-05-07T13:00:09;25.00;45.90
39777;DHT22;25453;48.162;14.510;2023-05-07T13:02:40;25.00;46.50
39777;DHT22;25453;48.162;14.510;2023-05-07T13:05:07;25.00;47.00
39777;DHT22;25453;48.162;14.510;2023-05-07T13:07:36;25.00;47.60
39777;DHT22;25453;48.162;14.510;2023-05-07T13:10:04;25.20;47.80
39777;DHT22;25453;48.162;14.510;2023-05-07T13:12:32;25.30;47.70
39777;DHT22;25453;48.162;14.510;2023-05-07T13:14:59;25.40;47.50
39777;DHT22;25453;48.162;14.510;2023-05-07T13:17:26;25.50;47.30
39777;DHT22;25453;48.162;14.510;2023-05-07T13:19:54;25.60;46.50
39777;DHT22;25453;48.162;14.510;2023-05-07T13:22:21;25.50;46.80
39777;DHT22;25453;48.162;14.510;2023-05-07T13:24:49;25.40;46.90
39777;DHT22;25453;48.162;14.510;2023-05-07T13:27:17;25.40;47.10
39777;DHT22;25453;48.162;14.510;2023-05-07T13:29:47;25.40;47.30
39777;DHT22;25453;48.162;14.510;2023-05-07T13:32:20;25.30;46.50
39777;DHT22;25453;48.162;14.510;2023-05-07T13:34:48;25.30;47.10
39777;DHT22;25453;48.162;14.510;2023-05-07T13:37:15;25.20;47.50
39777;DHT22;25453;48.162;14.510;2023-05-07T13:39:42;25.20;47.50
39777;DHT22;25453;48.162;14.510;2023-05-07T13:42:12;25.10;47.50
39777;DHT22;25453;48.162;14.510;2023-05-07T13:44:40;25.00;47.40
39777;DHT22;25453;48.162;14.510;2023-05-07T13:47:07;25.00;47.70
39777;DHT22;25453;48.162;14.510;2023-05-07T13:49:35;24.90;47.70
39777;DHT22;25453;48.162;14.510;2023-05-07T13:52:02;24.90;47.80
39777;DHT22;25453;48.162;14.510;2023-05-07T13:54:29;24.90;48.30
39777;DHT22;25453;48.162;14.510;2023-05-07T13:57:00;24.90;48.40
39777;DHT22;25453;48.162;14.510;2023-05-07T13:59:30;24.90;47.90
39777;DHT22;25453;48.162;14.510;2023-05-07T14:01:57;24.90;48.30
39777;DHT22;25453;48.162;14.510;2023-05-07T14:04:26;24.80;47.70
39777;DHT22;25453;48.162;14.510;2023-05-07T14:06:53;24.70;47.60
39777;DHT22;25453;48.162;14.510;2023-05-07T14:09:20;24.60;48.20
39777;DHT22;25453;48.162;14.510;2023-05-07T14:11:50;24.50;48.70
39777;DHT22;25453;48.162;14.510;2023-05-07T14:14:20;24.40;48.70
39777;DHT22;25453;48.162;14.510;2023-05-07T14:16:51;24.30;48.80
39777;DHT22;25453;48.162;14.510;2023-05-07T14:19:19;24.10;49.00
39777;DHT22;25453;48.162;14.510;2023-05-07T14:21:46;24.00;49.00
39777;DHT22;25453;48.162;14.510;2023-05-07T14:24:13;23.90;49.20
39777;DHT22;25453;48.162;14.510;2023-05-07T14:27:00;23.80;49.70
39777;DHT22;25453;48.162;14.510;2023-05-07T14:29:27;23.60;49.90
39777;DHT22;25453;48.162;14.510;2023-05-07T14:31:54;23.50;50.20
39777;DHT22;25453;48.162;14.510;2023-05-07T14:34:22;23.40;50.60
39777;DHT22;25453;48.162;14.510;2023-05-07T14:36:52;23.40;50.50
39777;DHT22;25453;48.162;14.510;2023-05-07T14:39:19;23.20;50.70
39777;DHT22;25453;48.162;14.510;2023-05-07T14:41:47;23.20;50.90
39777;DHT22;25453;48.162;14.510;2023-05-07T14:44:14;23.20;51.00
39777;DHT22;25453;48.162;14.510;2023-05-07T14:46:41;23.10;51.00
39777;DHT22;25453;48.162;14.510;2023-05-07T14:49:10;23.00;51.10
39777;DHT22;25453;48.162;14.510;2023-05-07T14:51:44;23.00;51.00
39777;DHT22;25453;48.162;14.510;2023-05-07T14:54:12;22.90;51.50
39777;DHT22;25453;48.162;14.510;2023-05-07T14:56:40;22.90;51.50
39777;DHT22;25453;48.162;14.510;2023-05-07T14:59:08;22.90;51.80
39777;DHT22;25453;48.162;14.510;2023-05-07T15:01:36;22.90;51.80
39777;DHT22;25453;48.162;14.510;2023-05-07T15:04:03;22.80;51.40
39777;DHT22;25453;48.162;14.510;2023-05-07T15:06:32;22.80;51.40
39777;DHT22;25453;48.162;14.510;2023-05-07T15:09:00;22.70;51.70
39777;DHT22;25453;48.162;14.510;2023-05-07T15:11:27;22.60;51.90
39777;DHT22;25453;48.162;14.510;2023-05-07T15:13:55;22.50;52.00
39777;DHT22;25453;48.162;14.510;2023-05-07T15:16:23;22.40;52.20
39777;DHT22;25453;48.162;14.510;2023-05-07T15:18:51;22.30;52.20
39777;DHT22;25453;48.162;14.510;2023-05-07T15:21:19;22.20;52.40
39777;DHT22;25453;48.162;14.510;2023-05-07T15:23:46;22.10;52.70
39777;DHT22;25453;48.162;14.510;2023-05-07T15:26:13;22.00;53.10
39777;DHT22;25453;48.162;14.510;2023-05-07T15:28:40;22.00;53.20
39777;DHT22;25453;48.162;14.510;2023-05-07T15:31:08;21.90;53.20
39777;DHT22;25453;48.162;14.510;2023-05-07T15:33:35;21.90;53.40
39777;DHT22;25453;48.162;14.510;2023-05-07T15:36:04;21.90;53.10
39777;DHT22;25453;48.162;14.510;2023-05-07T15:38:34;21.90;52.90
39777;DHT22;25453;48.162;14.510;2023-05-07T15:41:02;21.80;53.10
39777;DHT22;25453;48.162;14.510;2023-05-07T15:43:29;21.70;53.20